sensor_id;sensor_type;location;lat;lon;timestamp;temperature;humidity
75621;DHT22;64574;48.506;-2.750;2023-03-26T00:01:24;8.20;93.50
75621;DHT22;64574;48.506;-2.750;2023-03-26T00:03:51;8.20;93.70
75621;DHT22;64574;48.506;-2.750;2023-03-26T00:06:26;8.30;93.70
75621;DHT22;64574;48.506;-2.750;2023-03-26T00:08:55;8.40;93.80
75621;DHT22;64574;48.506;-2.750;2023-03-26T00:11:22;8.50;94.00
75621;DHT22;64574;48.506;-2.750;2023-03-26T00:13:49;8.40;93.90
75621;DHT22;64574;48.506;-2.750;2023-03-26T00:16:18;8.30;93.70
75621;DHT22;64574;48.506;-2.750;2023-03-26T00:18:44;8.30;93.70
75621;DHT22;64574;48.506;-2.750;2023-03-26T00:21:13;8.20;93.70
75621;DHT22;64574;48.506;-2.750;2023-03-26T00:23:39;8.30;93.90
75621;DHT22;64574;48.506;-2.750;2023-03-26T00:26:06;8.30;93.90
75621;DHT22;64574;48.506;-2.750;2023-03-26T00:28:36;8.10;93.60
75621;DHT22;64574;48.506;-2.750;2023-03-26T00:31:04;8.20;93.90
75621;DHT22;64574;48.506;-2.750;2023-03-26T00:33:31;8.10;93.90
75621;DHT22;64574;48.506;-2.750;2023-03-26T00:35:58;8.10;94.00
75621;DHT22;64574;48.506;-2.750;2023-03-26T00:38:26;8.20;94.10
75621;DHT22;64574;48.506;-2.750;2023-03-26T00:40:53;8.00;94.00
75621;DHT22;64574;48.506;-2.750;2023-03-26T00:43:20;8.10;94.00
75621;DHT22;64574;48.506;-2.750;2023-03-26T00:45:53;8.10;94.00
75621;DHT22;64574;48.506;-2.750;2023-03-26T00:48:20;8.00;93.80
75621;DHT22;64574;48.506;-2.750;2023-03-26T00:50:46;7.90;93.90
75621;DHT22;64574;48.506;-2.750;2023-03-26T00:53:13;7.80;93.80
75621;DHT22;64574;48.506;-2.750;2023-03-26T00:55:44;7.80;94.00
75621;DHT22;64574;48.506;-2.750;2023-03-26T00:58:10;7.80;94.00
75621;DHT22;64574;48.506;-2.750;2023-03-26T01:00:46;7.80;94.00
75621;DHT22;64574;48.506;-2.750;2023-03-26T01:03:14;8.00;94.10
75621;DHT22;64574;48.506;-2.750;2023-03-26T01:08:44;7.80;94.10
75621;DHT22;64574;48.506;-2.750;2023-03-26T01:11:23;7.90;94.20
75621;DHT22;64574;48.506;-2.750;2023-03-26T01:13:53;7.80;94.00
75621;DHT22;64574;48.506;-2.750;2023-03-26T01:18:55;7.80;94.00
75621;DHT22;64574;48.506;-2.750;2023-03-26T01:21:24;7.80;94.00
75621;DHT22;64574;48.506;-2.750;2023-03-26T01:24:01;7.70;94.00
75621;DHT22;64574;48.506;-2.750;2023-03-26T01:29:54;7.80;94.10
75621;DHT22;64574;48.506;-2.750;2023-03-26T01:37:58;7.70;94.20
75621;DHT22;64574;48.506;-2.750;2023-03-26T01:40:34;7.60;94.20
75621;DHT22;64574;48.506;-2.750;2023-03-26T01:46:00;7.80;94.30
75621;DHT22;64574;48.506;-2.750;2023-03-26T01:48:36;7.60;94.10
75621;DHT22;64574;48.506;-2.750;2023-03-26T01:51:03;7.60;93.90
75621;DHT22;64574;48.506;-2.750;2023-03-26T01:53:30;7.80;94.30
75621;DHT22;64574;48.506;-2.750;2023-03-26T01:56:19;7.80;94.20
75621;DHT22;64574;48.506;-2.750;2023-03-26T01:58:53;7.80;94.30
75621;DHT22;64574;48.506;-2.750;2023-03-26T02:01:41;7.60;93.90
75621;DHT22;64574;48.506;-2.750;2023-03-26T02:07:30;7.80;94.10
75621;DHT22;64574;48.506;-2.750;2023-03-26T02:10:15;7.80;94.30
75621;DHT22;64574;48.506;-2.750;2023-03-26T02:12:41;7.80;94.10
75621;DHT22;64574;48.506;-2.750;2023-03-26T02:15:08;7.80;94.30
75621;DHT22;64574;48.506;-2.750;2023-03-26T02:17:34;7.80;94.10
75621;DHT22;64574;48.506;-2.750;2023-03-26T02:20:00;7.80;94.10
75621;DHT22;64574;48.506;-2.750;2023-03-26T02:22:30;7.90;94.40
75621;DHT22;64574;48.506;-2.750;2023-03-26T02:24:55;8.00;94.50
75621;DHT22;64574;48.506;-2.750;2023-03-26T02:27:21;8.00;94.50
75621;DHT22;64574;48.506;-2.750;2023-03-26T02:29:47;8.00;94.40
75621;DHT22;64574;48.506;-2.750;2023-03-26T02:32:14;8.00;94.40
75621;DHT22;64574;48.506;-2.750;2023-03-26T02:34:41;8.00;94.40
75621;DHT22;64574;48.506;-2.750;2023-03-26T02:37:07;8.00;94.30
75621;DHT22;64574;48.506;-2.750;2023-03-26T02:39:33;8.00;94.10
75621;DHT22;64574;48.506;-2.750;2023-03-26T02:42:00;8.00;93.90
75621;DHT22;64574;48.506;-2.750;2023-03-26T02:44:26;8.10;94.00
75621;DHT22;64574;48.506;-2.750;2023-03-26T02:46:52;8.00;93.50
75621;DHT22;64574;48.506;-2.750;2023-03-26T02:49:17;8.00;93.20
75621;DHT22;64574;48.506;-2.750;2023-03-26T02:51:43;7.90;92.10
75621;DHT22;64574;48.506;-2.750;2023-03-26T02:54:08;7.80;88.40
75621;DHT22;64574;48.506;-2.750;2023-03-26T02:56:34;7.80;89.00
75621;DHT22;64574;48.506;-2.750;2023-03-26T02:59:00;7.80;89.20
75621;DHT22;64574;48.506;-2.750;2023-03-26T03:01:26;7.80;87.90
75621;DHT22;64574;48.506;-2.750;2023-03-26T03:03:55;7.80;86.90
75621;DHT22;64574;48.506;-2.750;2023-03-26T03:06:21;7.90;87.80
75621;DHT22;64574;48.506;-2.750;2023-03-26T03:08:46;7.90;87.20
75621;DHT22;64574;48.506;-2.750;2023-03-26T03:11:14;8.00;87.50
75621;DHT22;64574;48.506;-2.750;2023-03-26T03:13:42;8.00;85.00
75621;DHT22;64574;48.506;-2.750;2023-03-26T03:16:08;8.00;86.60
75621;DHT22;64574;48.506;-2.750;2023-03-26T03:18:34;8.00;84.10
75621;DHT22;64574;48.506;-2.750;2023-03-26T03:21:01;8.10;84.10
75621;DHT22;64574;48.506;-2.750;2023-03-26T03:23:27;8.20;84.60
75621;DHT22;64574;48.506;-2.750;2023-03-26T03:25:53;8.20;84.50
75621;DHT22;64574;48.506;-2.750;2023-03-26T03:28:22;8.10;81.20
75621;DHT22;64574;48.506;-2.750;2023-03-26T03:30:48;8.10;81.90
75621;DHT22;64574;48.506;-2.750;2023-03-26T03:33:20;8.20;81.40
75621;DHT22;64574;48.506;-2.750;2023-03-26T03:35:49;8.20;81.40
75621;DHT22;64574;48.506;-2.750;2023-03-26T03:38:16;8.20;79.20
75621;DHT22;64574;48.506;-2.750;2023-03-26T03:40:42;8.20;79.40
75621;DHT22;64574;48.506;-2.750;2023-03-26T03:43:08;8.20;78.60
75621;DHT22;64574;48.506;-2.750;2023-03-26T03:45:34;8.20;77.20
75621;DHT22;64574;48.506;-2.750;2023-03-26T03:48:00;8.20;77.60
75621;DHT22;64574;48.506;-2.750;2023-03-26T03:50:25;8.20;78.00
75621;DHT22;64574;48.506;-2.750;2023-03-26T03:52:51;8.20;77.10
75621;DHT22;64574;48.506;-2.750;2023-03-26T03:55:17;8.30;78.00
75621;DHT22;64574;48.506;-2.750;2023-03-26T03:57:43;8.30;76.20
75621;DHT22;64574;48.506;-2.750;2023-03-26T04:00:10;8.20;75.70
75621;DHT22;64574;48.506;-2.750;2023-03-26T04:02:37;8.20;75.50
75621;DHT22;64574;48.506;-2.750;2023-03-26T04:05:04;8.20;75.30
75621;DHT22;64574;48.506;-2.750;2023-03-26T04:07:31;8.10;75.70
75621;DHT22;64574;48.506;-2.750;2023-03-26T04:10:00;8.20;76.10
75621;DHT22;64574;48.506;-2.750;2023-03-26T04:12:29;8.20;75.90
75621;DHT22;64574;48.506;-2.750;2023-03-26T04:14:55;8.20;75.20
75621;DHT22;64574;48.506;-2.750;2023-03-26T04:17:22;8.20;74.80
75621;DHT22;64574;48.506;-2.750;2023-03-26T04:19:49;8.10;74.30
75621;DHT22;64574;48.506;-2.750;2023-03-26T04:22:17;8.10;74.80
75621;DHT22;64574;48.506;-2.750;2023-03-26T04:24:44;8.00;74.70
75621;DHT22;64574;48.506;-2.750;2023-03-26T04:27:16;8.10;74.30
75621;DHT22;64574;48.506;-2.750;2023-03-26T04:29:44;8.10;74.40
75621;DHT22;64574;48.506;-2.750;2023-03-26T04:32:18;8.10;74.50
75621;DHT22;64574;48.506;-2.750;2023-03-26T04:34:46;8.10;74.50
75621;DHT22;64574;48.506;-2.750;2023-03-26T04:37:19;8.00;74.10
75621;DHT22;64574;48.506;-2.750;2023-03-26T04:39:47;8.00;74.10
75621;DHT22;64574;48.506;-2.750;2023-03-26T04:42:12;7.90;73.90
75621;DHT22;64574;48.506;-2.750;2023-03-26T04:44:38;8.00;74.10
75621;DHT22;64574;48.506;-2.750;2023-03-26T04:47:06;7.90;73.70
75621;DHT22;64574;48.506;-2.750;2023-03-26T04:49:32;7.80;74.00
75621;DHT22;64574;48.506;-2.750;2023-03-26T04:51:57;7.90;73.50
75621;DHT22;64574;48.506;-2.750;2023-03-26T04:54:23;7.80;74.20
75621;DHT22;64574;48.506;-2.750;2023-03-26T04:56:56;7.80;73.70
75621;DHT22;64574;48.506;-2.750;2023-03-26T04:59:27;7.80;73.40
75621;DHT22;64574;48.506;-2.750;2023-03-26T05:01:57;7.80;73.60
75621;DHT22;64574;48.506;-2.750;2023-03-26T05:04:25;7.80;74.20
75621;DHT22;64574;48.506;-2.750;2023-03-26T05:06:51;7.80;74.20
75621;DHT22;64574;48.506;-2.750;2023-03-26T05:09:18;7.80;73.60
75621;DHT22;64574;48.506;-2.750;2023-03-26T05:11:43;7.80;73.90
75621;DHT22;64574;48.506;-2.750;2023-03-26T05:14:09;7.80;74.10
75621;DHT22;64574;48.506;-2.750;2023-03-26T05:16:35;7.80;73.80
75621;DHT22;64574;48.506;-2.750;2023-03-26T05:19:01;7.80;74.10
75621;DHT22;64574;48.506;-2.750;2023-03-26T05:21:27;7.80;74.30
75621;DHT22;64574;48.506;-2.750;2023-03-26T05:23:53;7.80;74.20
75621;DHT22;64574;48.506;-2.750;2023-03-26T05:26:18;7.80;74.20
75621;DHT22;64574;48.506;-2.750;2023-03-26T05:28:44;7.80;74.50
75621;DHT22;64574;48.506;-2.750;2023-03-26T05:31:10;8.00;75.00
75621;DHT22;64574;48.506;-2.750;2023-03-26T05:33:36;7.90;75.30
75621;DHT22;64574;48.506;-2.750;2023-03-26T05:36:08;7.90;75.40
75621;DHT22;64574;48.506;-2.750;2023-03-26T05:38:34;8.00;75.60
75621;DHT22;64574;48.506;-2.750;2023-03-26T05:41:03;8.00;76.10
75621;DHT22;64574;48.506;-2.750;2023-03-26T05:43:29;8.00;76.80
75621;DHT22;64574;48.506;-2.750;2023-03-26T05:45:56;7.80;78.50
75621;DHT22;64574;48.506;-2.750;2023-03-26T05:48:23;7.60;80.90
75621;DHT22;64574;48.506;-2.750;2023-03-26T05:50:50;7.50;84.00
75621;DHT22;64574;48.506;-2.750;2023-03-26T05:53:16;7.30;86.00
75621;DHT22;64574;48.506;-2.750;2023-03-26T05:55:46;7.20;86.30
75621;DHT22;64574;48.506;-2.750;2023-03-26T05:58:15;7.20;87.50
75621;DHT22;64574;48.506;-2.750;2023-03-26T06:00:41;7.50;88.10
75621;DHT22;64574;48.506;-2.750;2023-03-26T06:03:07;7.40;87.00
75621;DHT22;64574;48.506;-2.750;2023-03-26T06:05:38;7.50;86.70
75621;DHT22;64574;48.506;-2.750;2023-03-26T06:08:05;7.60;85.90
75621;DHT22;64574;48.506;-2.750;2023-03-26T06:10:31;7.70;84.90
75621;DHT22;64574;48.506;-2.750;2023-03-26T06:12:57;7.60;83.60
75621;DHT22;64574;48.506;-2.750;2023-03-26T06:15:22;7.60;82.30
75621;DHT22;64574;48.506;-2.750;2023-03-26T06:17:48;7.50;83.20
75621;DHT22;64574;48.506;-2.750;2023-03-26T06:20:14;7.50;84.60
75621;DHT22;64574;48.506;-2.750;2023-03-26T06:22:40;7.50;84.10
75621;DHT22;64574;48.506;-2.750;2023-03-26T06:25:07;7.50;83.00
75621;DHT22;64574;48.506;-2.750;2023-03-26T06:27:32;7.50;82.10
75621;DHT22;64574;48.506;-2.750;2023-03-26T06:29:58;7.50;81.90
75621;DHT22;64574;48.506;-2.750;2023-03-26T06:32:24;7.60;82.10
75621;DHT22;64574;48.506;-2.750;2023-03-26T06:34:50;7.60;80.80
75621;DHT22;64574;48.506;-2.750;2023-03-26T06:37:16;7.60;81.10
75621;DHT22;64574;48.506;-2.750;2023-03-26T06:39:41;7.60;80.30
75621;DHT22;64574;48.506;-2.750;2023-03-26T06:42:07;7.60;79.00
75621;DHT22;64574;48.506;-2.750;2023-03-26T06:44:33;7.60;79.50
75621;DHT22;64574;48.506;-2.750;2023-03-26T06:46:59;7.70;79.40
75621;DHT22;64574;48.506;-2.750;2023-03-26T06:49:25;7.80;79.40
75621;DHT22;64574;48.506;-2.750;2023-03-26T06:51:51;7.80;78.70
75621;DHT22;64574;48.506;-2.750;2023-03-26T06:54:16;7.70;79.00
75621;DHT22;64574;48.506;-2.750;2023-03-26T06:56:42;7.80;78.10
75621;DHT22;64574;48.506;-2.750;2023-03-26T06:59:09;7.80;78.40
75621;DHT22;64574;48.506;-2.750;2023-03-26T07:01:34;7.70;78.50
75621;DHT22;64574;48.506;-2.750;2023-03-26T07:04:00;7.60;78.30
75621;DHT22;64574;48.506;-2.750;2023-03-26T07:06:26;7.60;78.20
75621;DHT22;64574;48.506;-2.750;2023-03-26T07:08:52;7.70;78.50
75621;DHT22;64574;48.506;-2.750;2023-03-26T07:11:20;7.70;78.00
75621;DHT22;64574;48.506;-2.750;2023-03-26T07:13:50;7.70;78.10
75621;DHT22;64574;48.506;-2.750;2023-03-26T07:16:16;7.60;77.90
75621;DHT22;64574;48.506;-2.750;2023-03-26T07:18:41;7.60;78.00
75621;DHT22;64574;48.506;-2.750;2023-03-26T07:21:08;7.60;76.90
75621;DHT22;64574;48.506;-2.750;2023-03-26T07:23:34;7.60;76.90
75621;DHT22;64574;48.506;-2.750;2023-03-26T07:26:14;7.60;75.70
75621;DHT22;64574;48.506;-2.750;2023-03-26T07:29:03;7.80;75.90
75621;DHT22;64574;48.506;-2.750;2023-03-26T07:31:59;7.80;75.20
75621;DHT22;64574;48.506;-2.750;2023-03-26T07:43:02;7.80;75.20
75621;DHT22;64574;48.506;-2.750;2023-03-26T07:45:38;7.80;75.70
75621;DHT22;64574;48.506;-2.750;2023-03-26T07:48:23;7.70;75.20
75621;DHT22;64574;48.506;-2.750;2023-03-26T07:50:50;7.80;75.40
75621;DHT22;64574;48.506;-2.750;2023-03-26T07:53:16;7.80;75.00
75621;DHT22;64574;48.506;-2.750;2023-03-26T07:55:54;7.60;75.70
75621;DHT22;64574;48.506;-2.750;2023-03-26T08:06:52;7.60;75.20
75621;DHT22;64574;48.506;-2.750;2023-03-26T08:12:00;7.70;74.30
75621;DHT22;64574;48.506;-2.750;2023-03-26T08:17:23;7.50;74.40
75621;DHT22;64574;48.506;-2.750;2023-03-26T08:22:38;7.50;74.70
75621;DHT22;64574;48.506;-2.750;2023-03-26T08:30:25;7.80;75.40
75621;DHT22;64574;48.506;-2.750;2023-03-26T08:32:55;7.80;74.70
75621;DHT22;64574;48.506;-2.750;2023-03-26T08:35:22;8.00;74.90
75621;DHT22;64574;48.506;-2.750;2023-03-26T08:37:48;8.00;74.70
75621;DHT22;64574;48.506;-2.750;2023-03-26T08:48:54;8.00;75.20
75621;DHT22;64574;48.506;-2.750;2023-03-26T08:54:51;8.00;76.00
75621;DHT22;64574;48.506;-2.750;2023-03-26T09:26:23;8.50;76.10
75621;DHT22;64574;48.506;-2.750;2023-03-26T09:34:31;8.70;75.90
75621;DHT22;64574;48.506;-2.750;2023-03-26T09:42:47;8.80;75.30
75621;DHT22;64574;48.506;-2.750;2023-03-26T09:45:39;8.80;75.40
75621;DHT22;64574;48.506;-2.750;2023-03-26T09:48:31;8.70;75.50
75621;DHT22;64574;48.506;-2.750;2023-03-26T09:51:29;8.80;75.60
75621;DHT22;64574;48.506;-2.750;2023-03-26T09:54:21;8.70;75.10
75621;DHT22;64574;48.506;-2.750;2023-03-26T10:25:14;9.00;73.60
75621;DHT22;64574;48.506;-2.750;2023-03-26T10:39:59;9.40;72.20
75621;DHT22;64574;48.506;-2.750;2023-03-26T10:53:41;10.00;70.90
75621;DHT22;64574;48.506;-2.750;2023-03-26T10:56:45;10.30;70.50
75621;DHT22;64574;48.506;-2.750;2023-03-26T10:59:14;10.30;69.40
75621;DHT22;64574;48.506;-2.750;2023-03-26T11:07:12;10.30;69.10
75621;DHT22;64574;48.506;-2.750;2023-03-26T11:12:45;10.30;70.10
75621;DHT22;64574;48.506;-2.750;2023-03-26T11:21:11;10.30;68.90
75621;DHT22;64574;48.506;-2.750;2023-03-26T11:29:19;10.70;68.10
75621;DHT22;64574;48.506;-2.750;2023-03-26T11:32:10;10.80;67.80
75621;DHT22;64574;48.506;-2.750;2023-03-26T11:37:38;10.70;66.90
75621;DHT22;64574;48.506;-2.750;2023-03-26T11:40:17;10.80;68.30
75621;DHT22;64574;48.506;-2.750;2023-03-26T11:42:46;10.70;67.60
75621;DHT22;64574;48.506;-2.750;2023-03-26T11:45:20;10.60;67.30
75621;DHT22;64574;48.506;-2.750;2023-03-26T11:48:07;10.60;64.80
75621;DHT22;64574;48.506;-2.750;2023-03-26T11:50:40;10.70;64.10
75621;DHT22;64574;48.506;-2.750;2023-03-26T11:53:15;10.80;63.80
75621;DHT22;64574;48.506;-2.750;2023-03-26T11:58:50;11.10;62.70
75621;DHT22;64574;48.506;-2.750;2023-03-26T12:01:25;11.00;63.10
75621;DHT22;64574;48.506;-2.750;2023-03-26T12:04:12;11.00;64.20
75621;DHT22;64574;48.506;-2.750;2023-03-26T12:06:38;10.80;61.20
75621;DHT22;64574;48.506;-2.750;2023-03-26T12:09:14;10.70;62.10
75621;DHT22;64574;48.506;-2.750;2023-03-26T12:11:40;10.80;63.20
75621;DHT22;64574;48.506;-2.750;2023-03-26T12:14:06;11.00;65.20
75621;DHT22;64574;48.506;-2.750;2023-03-26T12:16:33;11.20;66.80
75621;DHT22;64574;48.506;-2.750;2023-03-26T12:21:25;11.30;60.30
75621;DHT22;64574;48.506;-2.750;2023-03-26T12:24:04;11.40;60.50
75621;DHT22;64574;48.506;-2.750;2023-03-26T12:26:41;11.40;63.00
75621;DHT22;64574;48.506;-2.750;2023-03-26T12:29:15;11.10;64.50
75621;DHT22;64574;48.506;-2.750;2023-03-26T12:31:48;11.00;66.40
75621;DHT22;64574;48.506;-2.750;2023-03-26T12:34:17;10.70;66.70
75621;DHT22;64574;48.506;-2.750;2023-03-26T12:37:02;10.70;67.80
75621;DHT22;64574;48.506;-2.750;2023-03-26T12:39:35;10.50;69.60
75621;DHT22;64574;48.506;-2.750;2023-03-26T12:42:08;10.60;70.70
75621;DHT22;64574;48.506;-2.750;2023-03-26T12:44:51;10.70;70.60
75621;DHT22;64574;48.506;-2.750;2023-03-26T12:47:27;10.80;70.40
75621;DHT22;64574;48.506;-2.750;2023-03-26T12:49:54;10.90;69.60
75621;DHT22;64574;48.506;-2.750;2023-03-26T13:00:57;10.90;66.20
75621;DHT22;64574;48.506;-2.750;2023-03-26T13:19:38;10.80;67.30
75621;DHT22;64574;48.506;-2.750;2023-03-26T13:22:37;10.60;68.20
75621;DHT22;64574;48.506;-2.750;2023-03-26T13:28:17;10.90;67.50
75621;DHT22;64574;48.506;-2.750;2023-03-26T13:38:58;10.70;68.60
75621;DHT22;64574;48.506;-2.750;2023-03-26T13:46:54;11.00;67.60
75621;DHT22;64574;48.506;-2.750;2023-03-26T13:54:46;11.10;67.30
75621;DHT22;64574;48.506;-2.750;2023-03-26T13:57:36;11.10;66.50
75621;DHT22;64574;48.506;-2.750;2023-03-26T14:00:10;11.00;66.40
75621;DHT22;64574;48.506;-2.750;2023-03-26T14:02:41;10.90;66.30
75621;DHT22;64574;48.506;-2.750;2023-03-26T14:05:22;11.10;66.60
75621;DHT22;64574;48.506;-2.750;2023-03-26T14:08:15;11.00;66.90
75621;DHT22;64574;48.506;-2.750;2023-03-26T14:10:50;11.10;66.90
75621;DHT22;64574;48.506;-2.750;2023-03-26T14:15:54;11.10;67.80
75621;DHT22;64574;48.506;-2.750;2023-03-26T14:24:57;10.70;68.60
75621;DHT22;64574;48.506;-2.750;2023-03-26T14:30:21;10.80;71.10
75621;DHT22;64574;48.506;-2.750;2023-03-26T14:35:53;10.70;71.70
75621;DHT22;64574;48.506;-2.750;2023-03-26T14:52:50;10.90;68.80
75621;DHT22;64574;48.506;-2.750;2023-03-26T15:24:01;10.90;67.30
75621;DHT22;64574;48.506;-2.750;2023-03-26T15:46:33;11.30;63.60
75621;DHT22;64574;48.506;-2.750;2023-03-26T15:55:17;11.40;63.80
75621;DHT22;64574;48.506;-2.750;2023-03-26T15:58:03;11.30;64.80
75621;DHT22;64574;48.506;-2.750;2023-03-26T16:00:35;11.30;64.80
75621;DHT22;64574;48.506;-2.750;2023-03-26T16:08:45;11.10;65.50
75621;DHT22;64574;48.506;-2.750;2023-03-26T16:11:51;11.10;65.90
75621;DHT22;64574;48.506;-2.750;2023-03-26T16:17:00;10.90;67.20
75621;DHT22;64574;48.506;-2.750;2023-03-26T16:19:45;10.90;67.60
75621;DHT22;64574;48.506;-2.750;2023-03-26T16:22:34;11.00;67.70
75621;DHT22;64574;48.506;-2.750;2023-03-26T16:25:31;10.90;68.20
75621;DHT22;64574;48.506;-2.750;2023-03-26T16:28:27;10.90;68.70
75621;DHT22;64574;48.506;-2.750;2023-03-26T16:31:27;10.70;68.50
75621;DHT22;64574;48.506;-2.750;2023-03-26T16:34:25;10.70;68.60
75621;DHT22;64574;48.506;-2.750;2023-03-26T16:36:52;10.70;67.30
75621;DHT22;64574;48.506;-2.750;2023-03-26T16:39:40;10.70;67.00
75621;DHT22;64574;48.506;-2.750;2023-03-26T16:53:21;11.00;68.00
75621;DHT22;64574;48.506;-2.750;2023-03-26T16:57:52;11.10;67.60
75621;DHT22;64574;48.506;-2.750;2023-03-26T17:05:41;10.90;69.00
75621;DHT22;64574;48.506;-2.750;2023-03-26T17:08:25;10.70;69.80
75621;DHT22;64574;48.506;-2.750;2023-03-26T17:16:25;10.70;71.80
75621;DHT22;64574;48.506;-2.750;2023-03-26T17:19:08;10.70;71.70
75621;DHT22;64574;48.506;-2.750;2023-03-26T17:27:25;10.80;72.40
75621;DHT22;64574;48.506;-2.750;2023-03-26T17:30:25;10.80;73.10
75621;DHT22;64574;48.506;-2.750;2023-03-26T17:33:09;10.70;74.00
75621;DHT22;64574;48.506;-2.750;2023-03-26T17:35:49;10.60;74.50
75621;DHT22;64574;48.506;-2.750;2023-03-26T17:40:57;10.50;74.00
75621;DHT22;64574;48.506;-2.750;2023-03-26T17:43:48;10.40;72.70
75621;DHT22;64574;48.506;-2.750;2023-03-26T17:46:35;10.50;72.50
75621;DHT22;64574;48.506;-2.750;2023-03-26T17:51:57;10.20;73.50
75621;DHT22;64574;48.506;-2.750;2023-03-26T17:57:02;9.80;75.00
75621;DHT22;64574;48.506;-2.750;2023-03-26T17:59:30;9.80;75.30
75621;DHT22;64574;48.506;-2.750;2023-03-26T18:01:59;9.90;76.40
75621;DHT22;64574;48.506;-2.750;2023-03-26T18:04:36;9.80;76.90
75621;DHT22;64574;48.506;-2.750;2023-03-26T18:07:53;9.80;77.30
75621;DHT22;64574;48.506;-2.750;2023-03-26T18:16:50;9.70;77.00
75621;DHT22;64574;48.506;-2.750;2023-03-26T18:19:19;9.70;76.70
75621;DHT22;64574;48.506;-2.750;2023-03-26T18:21:56;9.70;76.70
75621;DHT22;64574;48.506;-2.750;2023-03-26T18:24:27;9.70;76.50
75621;DHT22;64574;48.506;-2.750;2023-03-26T18:29:35;9.60;77.10
75621;DHT22;64574;48.506;-2.750;2023-03-26T18:32:19;9.70;77.20
75621;DHT22;64574;48.506;-2.750;2023-03-26T18:34:56;9.70;77.10
75621;DHT22;64574;48.506;-2.750;2023-03-26T18:37:26;9.60;77.50
75621;DHT22;64574;48.506;-2.750;2023-03-26T18:39:58;9.70;77.50
75621;DHT22;64574;48.506;-2.750;2023-03-26T18:42:26;9.70;77.30
75621;DHT22;64574;48.506;-2.750;2023-03-26T18:44:52;9.70;76.90
75621;DHT22;64574;48.506;-2.750;2023-03-26T18:47:19;9.80;76.70
75621;DHT22;64574;48.506;-2.750;2023-03-26T18:49:47;9.70;76.90
75621;DHT22;64574;48.506;-2.750;2023-03-26T18:52:16;9.70;76.80
75621;DHT22;64574;48.506;-2.750;2023-03-26T18:54:46;9.60;77.50
75621;DHT22;64574;48.506;-2.750;2023-03-26T18:57:21;9.60;78.10
75621;DHT22;64574;48.506;-2.750;2023-03-26T18:59:48;9.40;78.60
75621;DHT22;64574;48.506;-2.750;2023-03-26T19:02:15;9.40;78.90
75621;DHT22;64574;48.506;-2.750;2023-03-26T19:04:42;9.50;78.80
75621;DHT22;64574;48.506;-2.750;2023-03-26T19:07:12;9.50;78.60
75621;DHT22;64574;48.506;-2.750;2023-03-26T19:09:39;9.50;78.70
75621;DHT22;64574;48.506;-2.750;2023-03-26T19:14:31;9.50;79.50
75621;DHT22;64574;48.506;-2.750;2023-03-26T19:17:02;9.60;79.10
75621;DHT22;64574;48.506;-2.750;2023-03-26T19:19:31;9.70;78.60
75621;DHT22;64574;48.506;-2.750;2023-03-26T19:21:58;9.60;78.50
75621;DHT22;64574;48.506;-2.750;2023-03-26T19:24:24;9.50;78.00
75621;DHT22;64574;48.506;-2.750;2023-03-26T19:26:50;9.70;78.00
75621;DHT22;64574;48.506;-2.750;2023-03-26T19:29:22;9.60;77.40
75621;DHT22;64574;48.506;-2.750;2023-03-26T19:31:50;9.50;77.00
75621;DHT22;64574;48.506;-2.750;2023-03-26T19:34:26;9.50;77.30
75621;DHT22;64574;48.506;-2.750;2023-03-26T19:36:58;9.60;77.50
75621;DHT22;64574;48.506;-2.750;2023-03-26T19:42:01;9.50;77.40
75621;DHT22;64574;48.506;-2.750;2023-03-26T19:44:29;9.50;76.90
75621;DHT22;64574;48.506;-2.750;2023-03-26T19:49:54;9.40;77.20
75621;DHT22;64574;48.506;-2.750;2023-03-26T19:52:21;9.40;76.90
75621;DHT22;64574;48.506;-2.750;2023-03-26T19:55:02;9.40;77.10
75621;DHT22;64574;48.506;-2.750;2023-03-26T19:57:30;9.40;77.30
75621;DHT22;64574;48.506;-2.750;2023-03-26T19:59:56;9.40;77.30
75621;DHT22;64574;48.506;-2.750;2023-03-26T20:02:23;9.20;78.10
75621;DHT22;64574;48.506;-2.750;2023-03-26T20:04:49;9.40;78.10
75621;DHT22;64574;48.506;-2.750;2023-03-26T20:07:18;9.40;77.90
75621;DHT22;64574;48.506;-2.750;2023-03-26T20:09:44;9.40;78.00
75621;DHT22;64574;48.506;-2.750;2023-03-26T20:12:13;9.40;78.40
75621;DHT22;64574;48.506;-2.750;2023-03-26T20:14:39;9.40;78.20
75621;DHT22;64574;48.506;-2.750;2023-03-26T20:17:11;9.50;78.00
75621;DHT22;64574;48.506;-2.750;2023-03-26T20:19:38;9.40;78.40
75621;DHT22;64574;48.506;-2.750;2023-03-26T20:22:05;9.50;78.40
75621;DHT22;64574;48.506;-2.750;2023-03-26T20:24:32;9.40;78.70
75621;DHT22;64574;48.506;-2.750;2023-03-26T20:26:57;9.50;78.50
75621;DHT22;64574;48.506;-2.750;2023-03-26T20:29:23;9.50;78.00
75621;DHT22;64574;48.506;-2.750;2023-03-26T20:31:49;9.60;78.30
75621;DHT22;64574;48.506;-2.750;2023-03-26T20:34:18;9.60;77.90
75621;DHT22;64574;48.506;-2.750;2023-03-26T20:36:45;9.60;78.40
75621;DHT22;64574;48.506;-2.750;2023-03-26T20:39:11;9.60;78.50
75621;DHT22;64574;48.506;-2.750;2023-03-26T20:41:45;9.50;78.40
75621;DHT22;64574;48.506;-2.750;2023-03-26T20:44:12;9.50;78.40
75621;DHT22;64574;48.506;-2.750;2023-03-26T20:46:40;9.50;78.90
75621;DHT22;64574;48.506;-2.750;2023-03-26T20:49:07;9.60;77.80
75621;DHT22;64574;48.506;-2.750;2023-03-26T20:51:34;9.50;78.00
75621;DHT22;64574;48.506;-2.750;2023-03-26T20:54:03;9.50;77.90
75621;DHT22;64574;48.506;-2.750;2023-03-26T20:56:32;9.50;77.80
75621;DHT22;64574;48.506;-2.750;2023-03-26T20:58:59;9.60;77.60
75621;DHT22;64574;48.506;-2.750;2023-03-26T21:01:25;9.60;77.50
75621;DHT22;64574;48.506;-2.750;2023-03-26T21:03:50;9.60;77.30
75621;DHT22;64574;48.506;-2.750;2023-03-26T21:06:16;9.50;77.60
75621;DHT22;64574;48.506;-2.750;2023-03-26T21:08:43;9.50;77.70
75621;DHT22;64574;48.506;-2.750;2023-03-26T21:14:31;9.60;77.80
75621;DHT22;64574;48.506;-2.750;2023-03-26T21:16:58;9.60;77.90
75621;DHT22;64574;48.506;-2.750;2023-03-26T21:19:24;9.40;78.50
75621;DHT22;64574;48.506;-2.750;2023-03-26T21:24:37;9.50;78.30
75621;DHT22;64574;48.506;-2.750;2023-03-26T21:27:09;9.40;78.70
75621;DHT22;64574;48.506;-2.750;2023-03-26T21:29:37;9.40;78.60
75621;DHT22;64574;48.506;-2.750;2023-03-26T21:32:03;9.40;79.00
75621;DHT22;64574;48.506;-2.750;2023-03-26T21:34:30;9.40;78.60
75621;DHT22;64574;48.506;-2.750;2023-03-26T21:36:58;9.40;79.00
75621;DHT22;64574;48.506;-2.750;2023-03-26T21:39:25;9.40;78.60
75621;DHT22;64574;48.506;-2.750;2023-03-26T21:41:52;9.40;79.10
75621;DHT22;64574;48.506;-2.750;2023-03-26T21:44:18;9.40;79.20
75621;DHT22;64574;48.506;-2.750;2023-03-26T21:46:46;9.50;78.70
75621;DHT22;64574;48.506;-2.750;2023-03-26T21:49:13;9.40;79.30
75621;DHT22;64574;48.506;-2.750;2023-03-26T21:51:39;9.40;79.40
75621;DHT22;64574;48.506;-2.750;2023-03-26T21:59:47;9.40;79.90
75621;DHT22;64574;48.506;-2.750;2023-03-26T22:10:18;9.40;80.60
75621;DHT22;64574;48.506;-2.750;2023-03-26T22:12:44;9.40;80.60
75621;DHT22;64574;48.506;-2.750;2023-03-26T22:15:09;9.40;80.80
75621;DHT22;64574;48.506;-2.750;2023-03-26T22:17:39;9.50;81.00
75621;DHT22;64574;48.506;-2.750;2023-03-26T22:20:07;9.50;80.90
75621;DHT22;64574;48.506;-2.750;2023-03-26T22:22:38;9.50;80.90
75621;DHT22;64574;48.506;-2.750;2023-03-26T22:25:04;9.40;81.20
75621;DHT22;64574;48.506;-2.750;2023-03-26T22:27:29;9.60;81.10